createdAt,value
2019-04-11T00:02:16.436Z,31.97
2019-04-11T00:04:48.537Z,39.75
2019-04-11T00:07:20.727Z,37.53
2019-04-11T00:09:52.682Z,35.00
2019-04-11T00:12:26.282Z,35.15
2019-04-11T00:15:00.126Z,33.65
2019-04-11T00:17:34.111Z,32.63
2019-04-11T00:20:07.637Z,63.83
2019-04-11T00:22:39.708Z,40.23
2019-04-11T00:25:12.023Z,34.35
2019-04-11T00:27:45.241Z,31.60
2019-04-11T00:30:18.481Z,38.73
2019-04-11T00:32:50.515Z,33.30
2019-04-11T00:35:22.454Z,31.87
2019-04-11T00:37:55.517Z,29.05
2019-04-11T00:40:27.454Z,31.48
2019-04-11T00:42:59.588Z,30.73
2019-04-11T00:45:31.787Z,35.33
2019-04-11T00:48:03.932Z,30.45
2019-04-11T00:50:37.091Z,28.38
2019-04-11T00:53:09.786Z,29.35
2019-04-11T00:55:42.078Z,29.67
2019-04-11T00:58:14.086Z,32.08
2019-04-11T01:00:46.894Z,31.35
2019-04-11T01:03:20.233Z,32.98
2019-04-11T01:05:52.249Z,31.60
2019-04-11T01:08:24.179Z,31.77
2019-04-11T01:10:57.272Z,30.10
2019-04-11T01:13:39.738Z,33.50
2019-04-11T01:16:05.213Z,35.23
2019-04-11T01:18:38.017Z,34.27
2019-04-11T01:21:10.318Z,39.67
2019-04-11T01:23:42.908Z,36.53
2019-04-11T01:26:15.207Z,38.30
2019-04-11T01:28:47.489Z,44.00
2019-04-11T01:31:21.825Z,48.08
2019-04-11T01:33:53.948Z,49.35
2019-04-11T01:36:26.964Z,50.35
2019-04-11T01:39:00.992Z,43.90
2019-04-11T01:41:34.430Z,39.95
2019-04-11T01:44:07.569Z,35.47
2019-04-11T01:46:40.278Z,36.65
2019-04-11T01:49:14.302Z,37.08
2019-04-11T01:51:46.320Z,34.75
2019-04-11T01:54:18.279Z,37.73
2019-04-11T01:56:51.623Z,34.05
2019-04-11T01:59:23.740Z,34.48
2019-04-11T02:01:57.058Z,33.08
2019-04-11T02:04:30.340Z,33.02
2019-04-11T02:07:02.559Z,32.42
2019-04-11T02:09:35.831Z,32.13
2019-04-11T02:12:09.895Z,34.18
2019-04-11T02:14:41.876Z,32.50
2019-04-11T02:17:14.654Z,32.20
2019-04-11T02:19:46.763Z,31.48
2019-04-11T02:22:20.178Z,31.70
2019-04-11T02:24:54.226Z,30.00
2019-04-11T02:27:27.487Z,31.75
2019-04-11T02:30:00.973Z,35.03
2019-04-11T02:32:34.496Z,28.67
2019-04-11T02:35:08.235Z,30.62
2019-04-11T02:37:42.251Z,27.95
2019-04-11T02:40:15.351Z,32.00
2019-04-11T02:42:47.720Z,33.47
2019-04-11T02:45:30.718Z,29.32
2019-04-11T02:47:55.744Z,35.00
2019-04-11T02:50:29.758Z,32.15
2019-04-11T02:53:02.702Z,32.10
2019-04-11T02:55:35.743Z,32.75
2019-04-11T02:58:08.141Z,34.10
2019-04-11T03:00:40.338Z,31.95
2019-04-11T03:03:13.079Z,33.53
2019-04-11T03:05:46.859Z,34.58
2019-04-11T03:08:20.141Z,30.17
2019-04-11T03:10:53.557Z,32.28
2019-04-11T03:13:27.190Z,33.20
2019-04-11T03:16:12.837Z,30.97
2019-04-11T03:18:52.879Z,34.38
2019-04-11T03:21:12.841Z,32.98
2019-04-11T03:23:39.834Z,37.05
2019-04-11T03:26:14.009Z,34.67
2019-04-11T03:28:49.761Z,36.68
2019-04-11T03:32:04.950Z,35.00
2019-04-11T03:34:31.389Z,32.45
2019-04-11T03:39:21.622Z,36.25
2019-04-11T03:41:52.010Z,31.57
2019-04-11T03:44:16.758Z,41.05
2019-04-11T03:46:52.427Z,33.08
2019-04-11T03:49:27.910Z,34.00
2019-04-11T03:51:48.771Z,34.40
2019-04-11T03:54:21.127Z,39.25
2019-04-11T03:56:53.743Z,34.35
2019-04-11T03:59:26.999Z,35.58
2019-04-11T04:01:59.948Z,34.90
2019-04-11T04:04:32.788Z,33.80
2019-04-11T04:07:04.940Z,30.70
2019-04-11T04:09:39.649Z,32.55
2019-04-11T04:12:11.421Z,37.42
2019-04-11T04:14:46.649Z,33.13
2019-04-11T04:17:21.361Z,32.88
2019-04-11T04:19:56.384Z,32.95
2019-04-11T04:22:30.015Z,32.15
2019-04-11T04:25:04.290Z,36.13
2019-04-11T04:27:36.085Z,30.30
2019-04-11T04:30:10.693Z,31.95
2019-04-11T04:32:42.838Z,32.50
2019-04-11T04:35:19.024Z,32.85
2019-04-11T04:37:49.844Z,32.70
2019-04-11T04:40:38.850Z,34.10
2019-04-11T04:42:57.858Z,34.20
2019-04-11T04:45:30.239Z,29.45
2019-04-11T04:48:07.705Z,28.05
2019-04-11T04:50:36.692Z,29.15
2019-04-11T04:53:09.861Z,28.60
2019-04-11T04:55:43.407Z,30.62
2019-04-11T04:58:15.801Z,28.53
2019-04-11T05:00:51.047Z,29.80
2019-04-11T05:03:22.247Z,30.70
2019-04-11T05:05:55.247Z,27.60
2019-04-11T05:08:27.478Z,26.10
2019-04-11T05:10:59.542Z,31.90
2019-04-11T05:13:32.334Z,26.68
2019-04-11T05:16:13.086Z,31.33
2019-04-11T05:18:39.699Z,27.48
2019-04-11T05:21:12.773Z,26.60
2019-04-11T05:23:45.920Z,29.27
2019-04-11T05:26:19.286Z,30.08
2019-04-11T05:28:51.432Z,29.65
2019-04-11T05:31:24.887Z,27.90
2019-04-11T05:33:57.108Z,27.77
2019-04-11T05:36:30.337Z,33.33
2019-04-11T05:39:02.546Z,30.00
2019-04-11T05:41:35.510Z,29.40
2019-04-11T05:44:10.470Z,30.15
2019-04-11T05:46:49.824Z,28.77
2019-04-11T05:49:15.425Z,30.77
2019-04-11T05:51:49.349Z,36.90
2019-04-11T05:54:21.482Z,29.32
2019-04-11T05:56:57.676Z,30.23
2019-04-11T05:59:29.050Z,28.77
2019-04-11T06:02:06.455Z,29.27
2019-04-11T06:04:37.282Z,33.45
2019-04-11T06:07:12.767Z,32.13
2019-04-11T06:09:46.157Z,31.33
2019-04-11T06:12:19.558Z,31.15
2019-04-11T06:14:52.758Z,29.82
2019-04-11T06:17:25.918Z,31.30
2019-04-11T06:19:59.256Z,28.40
2019-04-11T06:22:31.867Z,30.55
2019-04-11T06:25:06.186Z,28.25
2019-04-11T06:27:41.176Z,27.17
2019-04-11T06:30:14.277Z,25.53
2019-04-11T06:32:47.849Z,26.42
2019-04-11T06:35:22.040Z,29.27
2019-04-11T06:37:56.301Z,29.83
2019-04-11T06:40:29.591Z,27.07
2019-04-11T06:43:03.619Z,30.00
2019-04-11T06:45:37.701Z,27.80
2019-04-11T06:48:11.571Z,26.97
2019-04-11T06:50:44.854Z,28.20
2019-04-11T06:53:18.897Z,30.10
2019-04-11T06:55:53.087Z,27.07
2019-04-11T06:58:27.567Z,31.93
2019-04-11T07:01:01.314Z,37.15
2019-04-11T07:03:34.918Z,31.12
2019-04-11T07:06:08.213Z,30.25
2019-04-11T07:08:42.622Z,27.87
2019-04-11T07:11:16.039Z,27.15
2019-04-11T07:13:49.806Z,26.85
2019-04-11T07:16:28.139Z,34.48
2019-04-11T07:19:02.749Z,32.93
2019-04-11T07:21:35.444Z,31.05
2019-04-11T07:24:09.000Z,33.18
2019-04-11T07:26:42.224Z,32.20
2019-04-11T07:29:15.587Z,32.08
2019-04-11T07:31:48.913Z,31.62
2019-04-11T07:34:22.566Z,26.65
2019-04-11T07:36:56.154Z,27.67
2019-04-11T07:39:29.409Z,28.32
2019-04-11T07:42:02.835Z,27.87
2019-04-11T07:44:36.306Z,27.77
2019-04-11T07:47:17.329Z,28.02
2019-04-11T07:49:44.986Z,28.07
2019-04-11T07:52:17.639Z,29.40
2019-04-11T07:54:49.763Z,26.87
2019-04-11T07:57:22.914Z,36.63
2019-04-11T07:59:56.393Z,29.20
2019-04-11T08:02:29.677Z,29.10
2019-04-11T08:05:04.398Z,24.92
2019-04-11T08:07:38.058Z,29.12
2019-04-11T08:10:11.334Z,35.08
2019-04-11T08:12:43.623Z,31.45
2019-04-11T08:15:18.163Z,33.90
2019-04-11T08:17:50.219Z,26.87
2019-04-11T08:20:23.542Z,25.92
2019-04-11T08:22:57.182Z,24.25
2019-04-11T08:25:31.423Z,30.85
2019-04-11T08:28:06.732Z,34.58
2019-04-11T08:30:40.133Z,39.42
2019-04-11T08:33:14.068Z,25.52
2019-04-11T08:35:50.227Z,24.63
2019-04-11T08:38:22.499Z,24.55
2019-04-11T08:40:55.851Z,24.95
2019-04-11T08:43:29.154Z,25.02
2019-04-11T08:46:02.602Z,25.82
2019-04-11T08:48:37.128Z,24.45
2019-04-11T08:51:11.426Z,32.30
2019-04-11T08:53:44.982Z,23.83
2019-04-11T08:56:18.939Z,38.85
2019-04-11T08:58:55.127Z,26.55
2019-04-11T09:01:27.729Z,38.08
2019-04-11T09:04:07.050Z,26.60
2019-04-11T09:06:36.889Z,32.10
2019-04-11T09:09:11.170Z,23.40
2019-04-11T09:11:44.780Z,24.45
2019-04-11T09:14:18.152Z,24.32
2019-04-11T09:16:52.090Z,28.62
2019-04-11T09:19:25.484Z,26.05
2019-04-11T09:21:58.812Z,25.12
2019-04-11T09:24:32.581Z,26.55
2019-04-11T09:27:06.584Z,26.83
2019-04-11T09:29:39.995Z,30.45
2019-04-11T09:32:13.306Z,25.93
2019-04-11T09:34:46.659Z,27.35
2019-04-11T09:37:20.453Z,21.82
2019-04-11T09:39:53.741Z,21.75
2019-04-11T09:42:26.930Z,25.63
2019-04-11T09:45:01.202Z,21.77
2019-04-11T09:47:36.278Z,27.60
2019-04-11T09:50:09.794Z,21.75
2019-04-11T09:52:43.178Z,23.18
2019-04-11T09:55:17.098Z,23.80
2019-04-11T09:57:50.582Z,21.57
2019-04-11T10:00:23.841Z,24.60
2019-04-11T10:02:57.081Z,32.08
2019-04-11T10:05:30.260Z,31.57
2019-04-11T10:08:03.845Z,29.17
2019-04-11T10:10:40.683Z,21.20
2019-04-11T10:13:12.956Z,22.15
2019-04-11T10:15:47.251Z,24.85
2019-04-11T10:18:26.053Z,25.95
2019-04-11T10:20:55.065Z,25.97
2019-04-11T10:23:29.215Z,23.55
2019-04-11T10:26:01.456Z,22.25
2019-04-11T10:28:35.568Z,26.95
2019-04-11T10:31:09.017Z,26.30
2019-04-11T10:33:42.440Z,25.97
2019-04-11T10:36:15.822Z,24.30
2019-04-11T10:38:49.290Z,29.05
2019-04-11T10:41:23.016Z,37.53
2019-04-11T10:43:55.214Z,25.80
2019-04-11T10:46:28.495Z,28.52
2019-04-11T10:49:01.823Z,63.08
2019-04-11T10:51:35.859Z,33.20
2019-04-11T10:54:08.657Z,30.43
2019-04-11T10:56:43.170Z,27.10
2019-04-11T10:59:15.917Z,100.00
2019-04-11T11:01:50.494Z,30.48
2019-04-11T11:04:23.930Z,29.10
2019-04-11T11:06:57.246Z,36.77
2019-04-11T11:09:30.629Z,30.80
2019-04-11T11:12:12.724Z,33.53
2019-04-11T11:14:46.924Z,25.87
2019-04-11T11:17:43.931Z,32.00
2019-04-11T11:20:08.983Z,34.60
2019-04-11T11:22:32.273Z,42.98
2019-04-11T11:25:04.313Z,33.58
2019-04-11T11:27:37.687Z,32.30
2019-04-11T11:30:11.145Z,28.00
2019-04-11T11:32:43.355Z,27.77
2019-04-11T11:35:16.679Z,28.12
2019-04-11T11:37:49.798Z,26.25
2019-04-11T11:40:23.839Z,28.30
2019-04-11T11:42:57.201Z,31.53
2019-04-11T11:45:30.424Z,30.60
2019-04-11T11:48:09.924Z,29.07
2019-04-11T11:50:37.609Z,33.30
2019-04-11T11:53:13.154Z,32.73
2019-04-11T11:55:45.607Z,33.02
2019-04-11T11:58:19.912Z,34.43
2019-04-11T12:00:55.375Z,33.98
2019-04-11T12:03:29.985Z,30.20
2019-04-11T12:06:03.119Z,33.80
2019-04-11T12:08:36.968Z,36.57
2019-04-11T12:11:10.492Z,40.10
2019-04-11T12:13:43.698Z,40.47
2019-04-11T12:16:19.663Z,36.68
2019-04-11T12:18:53.392Z,40.65
2019-04-11T12:21:28.098Z,43.05
2019-04-11T12:24:05.596Z,37.98
2019-04-11T12:26:35.826Z,37.88
2019-04-11T12:29:10.164Z,38.33
2019-04-11T12:31:44.018Z,37.58
2019-04-11T12:34:18.538Z,58.40
2019-04-11T12:36:51.530Z,100.02
2019-04-11T12:39:25.478Z,67.22
2019-04-11T12:41:59.139Z,46.98
2019-04-11T12:44:32.356Z,59.25
2019-04-11T12:47:07.613Z,68.97
2019-04-11T12:49:40.300Z,227.68
2019-04-11T12:52:13.690Z,280.80
2019-04-11T12:54:47.118Z,96.95
2019-04-11T12:57:20.558Z,77.55
2019-04-11T12:59:53.839Z,84.42
2019-04-11T13:53:38.820Z,39.42
2019-04-11T13:56:12.174Z,37.85
2019-04-11T13:58:45.621Z,39.50
2019-04-11T14:01:18.142Z,42.43
2019-04-11T14:03:51.666Z,38.23
2019-04-11T14:06:25.077Z,38.90
2019-04-11T14:08:59.304Z,44.85
2019-04-11T14:11:33.793Z,44.90
2019-04-11T14:14:06.890Z,47.67
2019-04-11T14:16:41.704Z,54.05
2019-04-11T14:19:14.911Z,52.30
2019-04-11T14:21:48.630Z,53.78
2019-04-11T14:24:22.291Z,55.98
2019-04-11T14:26:55.726Z,52.70
2019-04-11T14:29:29.261Z,45.28
2019-04-11T14:32:02.636Z,51.20
2019-04-11T14:34:36.114Z,52.93
2019-04-11T14:37:09.731Z,44.67
2019-04-11T14:39:43.111Z,51.83
2019-04-11T14:42:16.749Z,51.68
2019-04-11T14:44:50.423Z,43.98
2019-04-11T14:47:24.020Z,45.98
2019-04-11T14:49:57.796Z,45.17
2019-04-11T14:52:31.749Z,44.50
2019-04-11T14:55:04.308Z,44.27
2019-04-11T14:57:37.806Z,41.95
2019-04-11T15:00:14.587Z,36.95
2019-04-11T15:02:48.318Z,41.05
2019-04-11T15:05:21.940Z,37.77
2019-04-11T15:07:54.271Z,36.03
2019-04-11T15:10:27.782Z,40.50
2019-04-11T15:13:00.174Z,36.55
2019-04-11T15:15:34.033Z,40.33
2019-04-11T15:18:06.888Z,38.05
2019-04-11T15:20:41.299Z,38.80
2019-04-11T15:23:15.044Z,37.63
2019-04-11T15:25:48.849Z,35.30
2019-04-11T15:28:22.473Z,37.88
2019-04-11T15:30:55.928Z,35.90
2019-04-11T15:33:29.445Z,30.57
2019-04-11T15:36:02.931Z,32.33
2019-04-11T15:38:36.458Z,35.30
2019-04-11T15:41:10.684Z,34.00
2019-04-11T15:43:44.269Z,35.05
2019-04-11T15:46:17.897Z,31.27
2019-04-11T15:48:53.546Z,31.42
2019-04-11T15:51:26.521Z,30.50
2019-04-11T15:54:00.110Z,28.03
2019-04-11T15:56:35.873Z,26.77
2019-04-11T15:59:08.773Z,27.20
2019-04-11T16:01:43.612Z,24.67
2019-04-11T16:04:17.010Z,32.08
2019-04-11T16:06:53.585Z,26.73
2019-04-11T16:09:26.561Z,27.48
2019-04-11T16:12:00.541Z,29.50
2019-04-11T16:14:34.469Z,36.42
2019-04-11T16:17:13.359Z,28.10
2019-04-11T16:19:47.619Z,29.48
2019-04-11T16:22:18.042Z,28.67
2019-04-11T16:24:51.471Z,31.05
2019-04-11T16:27:24.790Z,31.63
2019-04-11T16:29:58.284Z,27.55
2019-04-11T16:32:31.782Z,26.25
2019-04-11T16:35:05.496Z,36.08
2019-04-11T16:37:37.830Z,31.33
2019-04-11T16:40:11.904Z,31.73
2019-04-11T16:42:45.558Z,29.60
2019-04-11T16:45:18.838Z,28.57
2019-04-11T16:47:53.771Z,31.70
2019-04-11T16:50:26.077Z,28.43
2019-04-11T16:52:58.415Z,33.63
2019-04-11T16:55:30.764Z,28.70
2019-04-11T16:58:03.004Z,31.65
2019-04-11T17:00:36.322Z,27.58
2019-04-11T17:03:08.542Z,26.60
2019-04-11T17:05:41.985Z,33.45
2019-04-11T17:08:15.316Z,28.17
2019-04-11T17:10:48.840Z,28.30
2019-04-11T17:13:21.328Z,31.02
2019-04-11T17:15:53.446Z,29.10
2019-04-11T17:18:25.592Z,32.50
2019-04-11T17:20:57.639Z,32.08
2019-04-11T17:23:29.864Z,29.50
2019-04-11T17:26:05.451Z,35.30
2019-04-11T17:28:38.102Z,29.52
2019-04-11T17:31:11.199Z,29.37
2019-04-11T17:33:43.731Z,30.90
2019-04-11T17:36:20.881Z,26.93
2019-04-11T17:38:57.240Z,27.05
2019-04-11T17:41:30.055Z,29.33
2019-04-11T17:44:02.611Z,27.60
2019-04-11T17:46:34.932Z,34.23
2019-04-11T17:49:07.143Z,27.65
2019-04-11T17:51:39.273Z,34.85
2019-04-11T17:54:11.501Z,30.30
2019-04-11T17:56:43.630Z,27.95
2019-04-11T17:59:16.060Z,25.83
2019-04-11T18:01:48.432Z,29.82
2019-04-11T18:04:20.573Z,29.72
2019-04-11T18:06:52.846Z,31.33
2019-04-11T18:09:26.286Z,30.55
2019-04-11T18:11:58.786Z,29.42
2019-04-11T18:14:31.717Z,27.77
2019-04-11T18:17:04.787Z,33.70
2019-04-11T18:19:37.079Z,31.87
2019-04-11T18:22:13.429Z,30.37
2019-04-11T18:24:44.583Z,30.88
2019-04-11T18:27:16.637Z,27.15
2019-04-11T18:29:52.530Z,26.77
2019-04-11T18:32:23.960Z,25.12
2019-04-11T18:34:56.015Z,25.53
2019-04-11T18:37:29.734Z,27.02
2019-04-11T18:40:06.019Z,25.32
2019-04-11T18:42:36.599Z,29.15
2019-04-11T18:45:10.341Z,23.95
2019-04-11T18:47:43.597Z,26.45
2019-04-11T18:50:15.943Z,27.05
2019-04-11T18:52:48.115Z,25.50
2019-04-11T18:55:20.357Z,23.07
2019-04-11T18:57:52.931Z,26.02
2019-04-11T19:00:26.455Z,26.52
2019-04-11T19:02:58.748Z,25.48
2019-04-11T19:05:30.881Z,22.93
2019-04-11T19:08:03.069Z,26.80
2019-04-11T19:10:35.209Z,22.17
2019-04-11T19:13:07.731Z,26.65
2019-04-11T19:15:39.928Z,28.07
2019-04-11T19:18:16.031Z,22.87
2019-04-11T19:20:47.975Z,27.73
2019-04-11T19:23:19.095Z,28.40
2019-04-11T19:25:51.681Z,29.37
2019-04-11T19:28:25.203Z,26.45
2019-04-11T19:30:58.484Z,25.72
2019-04-11T19:33:34.005Z,25.52
2019-04-11T19:36:04.431Z,25.08
2019-04-11T19:38:37.881Z,25.53
2019-04-11T19:41:10.013Z,25.75
2019-04-11T19:43:42.365Z,25.20
2019-04-11T19:46:14.881Z,24.35
2019-04-11T19:48:47.262Z,30.50
2019-04-11T19:51:19.321Z,28.17
2019-04-11T19:53:51.673Z,22.93
2019-04-11T19:56:25.159Z,21.55
2019-04-11T19:58:57.526Z,24.45
2019-04-11T20:01:29.655Z,22.13
2019-04-11T20:04:02.211Z,25.10
2019-04-11T20:06:34.388Z,25.52
2019-04-11T20:09:08.416Z,26.67
2019-04-11T20:11:41.027Z,24.10
2019-04-11T20:14:13.516Z,24.37
2019-04-11T20:16:48.896Z,24.60
2019-04-11T20:19:19.338Z,22.62
2019-04-11T20:21:51.583Z,25.77
2019-04-11T20:24:23.728Z,27.17
2019-04-11T20:26:55.957Z,23.65
2019-04-11T20:29:28.348Z,27.90
2019-04-11T20:32:00.593Z,25.45
2019-04-11T20:34:33.264Z,26.37
2019-04-11T20:37:05.315Z,24.63
2019-04-11T20:39:37.621Z,26.00
2019-04-11T20:42:09.991Z,25.15
2019-04-11T20:44:42.498Z,27.55
2019-04-11T20:47:16.785Z,28.17
2019-04-11T20:49:50.010Z,29.90
2019-04-11T20:52:22.082Z,25.08
2019-04-11T20:54:54.395Z,25.80
2019-04-11T20:57:26.639Z,27.85
2019-04-11T20:59:58.718Z,27.75
2019-04-11T21:02:30.977Z,24.95
2019-04-11T21:05:03.286Z,25.02
2019-04-11T21:07:35.694Z,23.12
2019-04-11T21:10:08.143Z,23.65
2019-04-11T21:12:40.360Z,25.97
2019-04-11T21:15:12.708Z,24.45
2019-04-11T21:17:44.809Z,26.73
2019-04-11T21:20:16.874Z,24.43
2019-04-11T21:22:49.489Z,24.80
2019-04-11T21:25:21.754Z,26.85
2019-04-11T21:27:54.080Z,23.70
2019-04-11T21:30:29.957Z,24.35
2019-04-11T21:33:01.088Z,26.77
2019-04-11T21:35:34.076Z,24.12
2019-04-11T21:38:06.486Z,35.20
2019-04-11T21:40:38.874Z,29.03
2019-04-11T21:43:11.198Z,33.35
2019-04-11T21:45:43.319Z,33.83
2019-04-11T21:48:15.560Z,47.50
2019-04-11T21:50:47.838Z,38.20
2019-04-11T21:53:20.311Z,31.05
2019-04-11T21:55:52.567Z,33.73
2019-04-11T21:58:24.815Z,33.63
2019-04-11T22:00:59.400Z,30.15
2019-04-11T22:03:31.986Z,31.20
2019-04-11T22:06:04.250Z,34.30
2019-04-11T22:08:36.350Z,26.87
2019-04-11T22:11:10.178Z,28.90
2019-04-11T22:13:42.227Z,33.88
2019-04-11T22:16:15.341Z,28.10
2019-04-11T22:18:47.795Z,27.20
2019-04-11T22:21:19.842Z,31.07
2019-04-11T22:23:52.070Z,26.17
2019-04-11T22:26:24.504Z,29.37
2019-04-11T22:28:56.875Z,28.65
2019-04-11T22:31:29.155Z,27.90
2019-04-11T22:34:02.482Z,29.87
2019-04-11T22:36:34.886Z,32.65
2019-04-11T22:39:09.419Z,33.85
2019-04-11T22:41:41.840Z,28.70
2019-04-11T22:44:14.110Z,35.78
2019-04-11T22:46:46.318Z,41.55
2019-04-11T22:49:18.606Z,32.42
2019-04-11T22:51:51.890Z,27.93
2019-04-11T22:54:24.177Z,29.25
2019-04-11T22:56:56.709Z,105.22
2019-04-11T22:59:29.024Z,79.87
2019-04-11T23:02:02.559Z,42.93
2019-04-11T23:04:34.782Z,32.25
2019-04-11T23:07:07.096Z,34.48
2019-04-11T23:09:39.340Z,34.08
2019-04-11T23:12:12.742Z,30.05
2019-04-11T23:14:45.736Z,34.65
2019-04-11T23:17:18.448Z,76.83
2019-04-11T23:19:52.266Z,54.80
2019-04-11T23:22:24.351Z,30.67
2019-04-11T23:24:56.834Z,30.75
2019-04-11T23:27:29.185Z,30.60
2019-04-11T23:30:01.584Z,30.62
2019-04-11T23:32:33.844Z,33.48
2019-04-11T23:35:06.350Z,38.75
2019-04-11T23:37:39.931Z,36.10
2019-04-11T23:40:12.255Z,34.45
2019-04-11T23:42:44.496Z,36.08
2019-04-11T23:45:18.829Z,31.68
2019-04-11T23:47:53.437Z,37.38
2019-04-11T23:50:25.254Z,35.73
2019-04-11T23:52:59.265Z,44.95
2019-04-11T23:55:31.705Z,50.40
2019-04-11T23:58:03.978Z,30.30
